createdAt,value
2022-07-25T00:00:29.452Z,2.40
2022-07-25T00:03:03.042Z,2.47
2022-07-25T00:05:37.621Z,2.33
2022-07-25T00:08:07.009Z,2.80
2022-07-25T00:10:35.513Z,2.70
2022-07-25T00:13:05.554Z,2.73
2022-07-25T00:15:34.052Z,2.87
2022-07-25T00:18:03.688Z,3.20
2022-07-25T00:20:32.284Z,2.77
2022-07-25T00:23:00.754Z,3.00
2022-07-25T00:25:29.247Z,2.80
2022-07-25T00:27:57.705Z,2.60
2022-07-25T00:30:27.543Z,2.57
2022-07-25T00:32:56.041Z,2.80
2022-07-25T00:35:24.411Z,2.70
2022-07-25T00:37:52.934Z,2.40
2022-07-25T00:40:21.472Z,2.60
2022-07-25T00:42:50.005Z,2.53
2022-07-25T00:45:18.756Z,2.47
2022-07-25T00:47:48.767Z,2.40
2022-07-25T00:50:17.249Z,2.50
2022-07-25T00:52:46.370Z,2.77
2022-07-25T00:55:15.294Z,2.80
2022-07-25T00:57:43.855Z,2.87
2022-07-25T01:00:15.530Z,2.43
2022-07-25T01:02:44.228Z,2.70
2022-07-25T01:05:14.628Z,2.57
2022-07-25T01:07:43.145Z,2.83
2022-07-25T01:10:12.331Z,2.53
2022-07-25T01:12:49.936Z,2.60
2022-07-25T01:15:19.425Z,2.63
2022-07-25T01:17:47.928Z,2.60
2022-07-25T01:20:18.638Z,2.70
2022-07-25T01:22:47.854Z,2.50
2022-07-25T01:25:17.363Z,2.53
2022-07-25T01:27:48.757Z,2.63
2022-07-25T01:30:19.843Z,2.57
2022-07-25T01:32:49.239Z,3.43
2022-07-25T01:35:19.281Z,2.47
2022-07-25T01:37:47.831Z,2.33
2022-07-25T01:40:16.762Z,2.67
2022-07-25T01:42:45.483Z,2.30
2022-07-25T01:45:14.649Z,2.73
2022-07-25T01:47:43.261Z,2.43
2022-07-25T01:50:12.387Z,2.67
2022-07-25T01:52:42.910Z,2.40
2022-07-25T01:55:12.107Z,2.50
2022-07-25T01:57:49.522Z,2.40
2022-07-25T02:00:19.236Z,2.53
2022-07-25T02:02:48.300Z,2.00
2022-07-25T02:05:17.314Z,2.40
2022-07-25T02:07:47.263Z,2.60
2022-07-25T02:10:15.855Z,2.30
2022-07-25T02:12:44.356Z,2.23
2022-07-25T02:15:13.141Z,2.30
2022-07-25T02:17:41.664Z,2.43
2022-07-25T02:20:11.461Z,2.13
2022-07-25T02:22:39.982Z,2.20
2022-07-25T02:25:10.658Z,2.30
2022-07-25T02:27:39.124Z,2.50
2022-07-25T02:30:08.731Z,2.47
2022-07-25T02:32:37.193Z,2.57
2022-07-25T02:35:12.992Z,2.97
2022-07-25T02:37:41.895Z,2.50
2022-07-25T02:40:12.632Z,2.47
2022-07-25T02:42:44.337Z,2.53
2022-07-25T02:45:14.141Z,2.80
2022-07-25T02:47:42.581Z,2.30
2022-07-25T02:50:14.468Z,2.23
2022-07-25T02:52:43.695Z,2.50
2022-07-25T02:55:13.708Z,2.73
2022-07-25T02:57:42.193Z,3.10
2022-07-25T03:00:11.759Z,2.60
2022-07-25T03:02:40.356Z,2.70
2022-07-25T03:05:10.277Z,2.77
2022-07-25T03:07:39.613Z,2.60
2022-07-25T03:10:11.316Z,2.90
2022-07-25T03:12:42.371Z,2.27
2022-07-25T03:15:12.894Z,2.60
2022-07-25T03:17:41.336Z,2.80
2022-07-25T03:20:11.073Z,2.20
2022-07-25T03:22:39.612Z,2.83
2022-07-25T03:25:15.589Z,2.30
2022-07-25T03:27:51.916Z,2.60
2022-07-25T03:30:20.393Z,2.50
2022-07-25T03:32:49.209Z,2.30
2022-07-25T03:35:17.891Z,2.60
2022-07-25T03:37:46.354Z,2.67
2022-07-25T03:40:16.110Z,2.50
2022-07-25T03:42:44.642Z,2.83
2022-07-25T03:45:14.588Z,2.60
2022-07-25T03:47:42.994Z,2.40
2022-07-25T03:50:11.719Z,2.73
2022-07-25T03:52:40.193Z,3.10
2022-07-25T03:55:10.262Z,2.80
2022-07-25T03:57:39.014Z,2.93
2022-07-25T04:00:10.901Z,3.20
2022-07-25T04:02:40.895Z,3.80
2022-07-25T04:05:10.485Z,3.57
2022-07-25T04:07:39.551Z,3.73
2022-07-25T04:10:09.620Z,3.63
2022-07-25T04:12:38.027Z,3.87
2022-07-25T04:15:07.615Z,2.80
2022-07-25T04:17:36.221Z,4.00
2022-07-25T04:20:10.551Z,2.83
2022-07-25T04:22:43.442Z,2.80
2022-07-25T04:25:15.133Z,2.83
2022-07-25T04:27:43.678Z,2.60
2022-07-25T04:30:13.566Z,2.90
2022-07-25T04:32:53.016Z,2.70
2022-07-25T04:35:23.098Z,3.47
2022-07-25T04:37:51.495Z,3.13
2022-07-25T04:40:20.039Z,2.63
2022-07-25T04:42:48.570Z,3.07
2022-07-25T04:45:17.610Z,2.70
2022-07-25T04:47:46.591Z,2.90
2022-07-25T04:50:16.026Z,2.90
2022-07-25T04:52:46.224Z,2.43
2022-07-25T04:55:14.671Z,3.00
2022-07-25T04:57:43.284Z,2.53
2022-07-25T05:00:12.979Z,2.67
2022-07-25T05:02:42.068Z,2.80
2022-07-25T05:05:20.836Z,2.53
2022-07-25T05:07:51.392Z,2.53
2022-07-25T05:10:19.824Z,2.57
2022-07-25T05:12:48.280Z,3.00
2022-07-25T05:15:16.652Z,2.70
2022-07-25T05:17:45.572Z,2.63
2022-07-25T05:20:14.757Z,2.57
2022-07-25T05:22:43.818Z,2.47
2022-07-25T05:25:14.476Z,2.70
2022-07-25T05:27:43.670Z,2.27
2022-07-25T05:30:13.720Z,2.30
2022-07-25T05:32:42.937Z,2.50
2022-07-25T05:35:12.209Z,1.90
2022-07-25T05:37:40.659Z,2.10
2022-07-25T05:40:09.999Z,2.00
2022-07-25T05:42:40.144Z,2.00
2022-07-25T05:45:09.800Z,2.07
2022-07-25T05:47:38.246Z,2.10
2022-07-25T05:50:07.195Z,2.17
2022-07-25T05:52:35.901Z,2.20
2022-07-25T05:55:04.272Z,1.80
2022-07-25T05:57:32.678Z,1.80
2022-07-25T06:00:02.540Z,1.70
2022-07-25T06:02:31.332Z,1.70
2022-07-25T06:05:00.978Z,2.10
2022-07-25T06:07:29.372Z,1.87
2022-07-25T06:09:57.738Z,1.90
2022-07-25T06:12:26.149Z,1.93
2022-07-25T06:14:55.101Z,1.70
2022-07-25T06:17:29.160Z,1.77
2022-07-25T06:20:00.578Z,1.60
2022-07-25T06:22:29.069Z,2.00
2022-07-25T06:24:57.554Z,2.50
2022-07-25T06:27:29.233Z,1.70
2022-07-25T06:29:58.112Z,1.80
2022-07-25T06:32:28.365Z,1.70
2022-07-25T06:34:56.726Z,1.83
2022-07-25T06:37:25.192Z,1.80
2022-07-25T06:39:53.798Z,1.80
2022-07-25T06:42:22.369Z,1.70
2022-07-25T06:44:50.982Z,1.63
2022-07-25T06:47:19.477Z,1.77
2022-07-25T06:49:49.504Z,2.30
2022-07-25T06:52:18.121Z,1.77
2022-07-25T06:54:46.744Z,1.83
2022-07-25T06:57:15.719Z,1.60
2022-07-25T06:59:45.175Z,1.80
2022-07-25T07:02:13.665Z,1.50
2022-07-25T07:04:42.375Z,1.47
2022-07-25T07:07:12.668Z,1.50
2022-07-25T07:09:41.253Z,1.60
2022-07-25T07:12:10.646Z,1.73
2022-07-25T07:14:39.983Z,1.50
2022-07-25T07:17:08.476Z,1.83
2022-07-25T07:19:38.921Z,1.83
2022-07-25T07:22:08.598Z,1.73
2022-07-25T07:24:43.918Z,1.87
2022-07-25T07:27:12.853Z,1.70
2022-07-25T07:29:41.319Z,1.90
2022-07-25T07:32:09.946Z,1.60
2022-07-25T07:34:38.867Z,1.43
2022-07-25T07:37:07.301Z,1.63
2022-07-25T07:39:35.763Z,2.40
2022-07-25T07:42:06.121Z,2.00
2022-07-25T07:44:35.327Z,1.60
2022-07-25T07:47:03.931Z,1.70
2022-07-25T07:49:32.477Z,1.50
2022-07-25T07:52:05.988Z,1.60
2022-07-25T07:54:55.328Z,1.50
2022-07-25T07:57:29.057Z,1.83
2022-07-25T07:59:57.625Z,1.20
2022-07-25T08:02:26.193Z,1.40
2022-07-25T08:04:54.722Z,1.50
2022-07-25T08:07:23.930Z,1.10
2022-07-25T08:09:52.411Z,1.23
2022-07-25T08:12:20.794Z,1.70
2022-07-25T08:14:50.655Z,1.30
2022-07-25T08:17:20.273Z,1.40
2022-07-25T08:19:50.956Z,1.40
2022-07-25T08:22:19.499Z,1.67
2022-07-25T08:24:48.028Z,1.13
2022-07-25T08:27:16.416Z,1.30
2022-07-25T08:29:44.795Z,1.27
2022-07-25T08:32:14.625Z,1.20
2022-07-25T08:34:43.019Z,1.20
2022-07-25T08:37:11.365Z,1.30
2022-07-25T08:39:41.888Z,1.20
2022-07-25T08:42:11.171Z,1.17
2022-07-25T08:44:44.183Z,1.20
2022-07-25T08:47:15.961Z,1.00
2022-07-25T08:49:44.630Z,1.00
2022-07-25T08:52:13.407Z,1.33
2022-07-25T08:54:42.148Z,1.20
2022-07-25T08:57:10.554Z,0.90
2022-07-25T08:59:38.923Z,1.00
2022-07-25T09:02:11.052Z,1.10
2022-07-25T09:04:41.021Z,1.03
2022-07-25T09:07:09.483Z,1.20
2022-07-25T09:09:40.392Z,1.00
2022-07-25T09:12:09.554Z,1.20
2022-07-25T09:14:44.568Z,1.10
2022-07-25T09:17:22.637Z,0.97
2022-07-25T09:19:57.948Z,0.90
2022-07-25T09:22:26.385Z,1.10
2022-07-25T09:24:55.187Z,1.00
2022-07-25T09:27:23.601Z,1.10
2022-07-25T09:29:52.059Z,1.17
2022-07-25T09:32:22.667Z,1.00
2022-07-25T09:34:52.373Z,1.10
2022-07-25T09:37:27.946Z,1.10
2022-07-25T09:39:56.352Z,1.27
2022-07-25T09:42:27.172Z,1.03
2022-07-25T09:45:00.082Z,1.17
2022-07-25T09:47:28.740Z,1.00
2022-07-25T09:49:58.204Z,0.90
2022-07-25T09:52:28.107Z,0.80
2022-07-25T09:54:56.548Z,1.03
2022-07-25T09:57:26.131Z,1.10
2022-07-25T09:59:56.189Z,1.00
2022-07-25T10:02:39.462Z,1.10
2022-07-25T10:05:15.282Z,0.80
2022-07-25T10:07:48.736Z,1.00
2022-07-25T10:10:27.092Z,0.90
2022-07-25T10:13:10.567Z,1.00
2022-07-25T10:15:50.431Z,1.13
2022-07-25T10:18:20.878Z,1.00
2022-07-25T10:20:51.086Z,1.10
2022-07-25T10:23:23.682Z,0.90
2022-07-25T10:26:08.883Z,1.10
2022-07-25T10:28:43.704Z,0.87
2022-07-25T10:31:25.061Z,1.10
2022-07-25T10:33:56.262Z,1.10
2022-07-25T10:36:25.594Z,1.17
2022-07-25T10:38:59.087Z,0.90
2022-07-25T10:41:29.009Z,1.10
2022-07-25T10:44:02.187Z,0.90
2022-07-25T10:46:32.845Z,1.00
2022-07-25T10:49:04.807Z,1.10
2022-07-25T10:51:40.975Z,1.10
2022-07-25T10:54:19.060Z,1.30
2022-07-25T10:56:58.293Z,0.90
2022-07-25T10:59:31.823Z,1.20
2022-07-25T11:02:00.595Z,1.10
2022-07-25T11:04:29.199Z,1.00
2022-07-25T11:06:58.281Z,1.10
2022-07-25T11:09:29.231Z,0.93
2022-07-25T11:12:00.011Z,1.03
2022-07-25T11:14:34.666Z,1.00
2022-07-25T11:17:14.736Z,1.10
2022-07-25T11:19:44.692Z,0.97
2022-07-25T11:22:14.035Z,0.83
2022-07-25T11:24:46.145Z,1.00
2022-07-25T11:27:23.845Z,1.40
2022-07-25T11:29:52.639Z,1.00
2022-07-25T11:32:21.614Z,1.30
2022-07-25T11:34:54.077Z,1.43
2022-07-25T11:37:23.054Z,1.10
2022-07-25T11:39:54.353Z,1.07
2022-07-25T11:42:23.130Z,1.10
2022-07-25T11:44:55.149Z,1.10
2022-07-25T11:47:28.926Z,1.07
2022-07-25T11:49:58.802Z,1.10
2022-07-25T11:52:30.046Z,1.10
2022-07-25T11:55:01.477Z,1.00
2022-07-25T11:57:32.080Z,1.10
2022-07-25T12:00:02.819Z,1.10
2022-07-25T12:02:33.518Z,1.27
2022-07-25T12:05:04.020Z,1.10
2022-07-25T12:07:41.097Z,0.93
2022-07-25T12:10:14.093Z,1.10
2022-07-25T12:12:48.877Z,1.20
2022-07-25T12:15:20.134Z,1.10
2022-07-25T12:17:49.549Z,1.20
2022-07-25T12:20:20.705Z,1.13
2022-07-25T12:22:50.838Z,1.40
2022-07-25T12:25:20.770Z,1.10
2022-07-25T12:27:50.209Z,1.00
2022-07-25T12:30:18.736Z,0.90
2022-07-25T12:32:48.110Z,1.00
2022-07-25T12:35:16.587Z,1.10
2022-07-25T12:37:45.912Z,1.30
2022-07-25T12:40:15.890Z,1.00
2022-07-25T12:42:46.154Z,1.20
2022-07-25T12:45:17.413Z,1.30
2022-07-25T12:47:47.134Z,1.10
2022-07-25T12:50:16.426Z,1.10
2022-07-25T12:52:45.549Z,1.27
2022-07-25T12:55:16.946Z,1.20
2022-07-25T12:57:47.617Z,1.00
2022-07-25T13:00:18.650Z,1.17
2022-07-25T13:02:47.708Z,1.50
2022-07-25T13:05:16.469Z,1.57
2022-07-25T13:07:45.225Z,1.10
2022-07-25T13:10:13.749Z,1.20
2022-07-25T13:12:42.773Z,1.10
2022-07-25T13:15:12.834Z,1.20
2022-07-25T13:17:42.251Z,1.03
2022-07-25T13:20:12.406Z,1.10
2022-07-25T13:22:40.967Z,1.73
2022-07-25T13:25:09.848Z,1.00
2022-07-25T13:27:39.462Z,1.10
2022-07-25T13:30:09.906Z,1.00
2022-07-25T13:32:39.733Z,1.10
2022-07-25T13:35:08.809Z,1.03
2022-07-25T13:37:37.223Z,1.27
2022-07-25T13:40:06.611Z,1.13
2022-07-25T13:42:35.100Z,0.97
2022-07-25T13:45:03.829Z,1.00
2022-07-25T13:47:35.806Z,0.90
2022-07-25T13:50:06.472Z,1.07
2022-07-25T13:52:35.054Z,1.00
2022-07-25T13:55:03.475Z,1.07
2022-07-25T13:57:34.001Z,1.27
2022-07-25T14:00:02.423Z,1.10
2022-07-25T14:02:31.024Z,1.10
2022-07-25T14:05:03.927Z,1.20
2022-07-25T14:07:35.725Z,1.13
2022-07-25T14:10:04.952Z,1.10
2022-07-25T14:12:33.406Z,1.10
2022-07-25T14:15:01.854Z,1.10
2022-07-25T14:17:30.795Z,0.90
2022-07-25T14:19:59.408Z,1.00
2022-07-25T14:22:27.969Z,1.40
2022-07-25T14:24:58.063Z,0.90
2022-07-25T14:27:26.559Z,1.10
2022-07-25T14:29:55.391Z,1.20
2022-07-25T14:32:24.662Z,1.03
2022-07-25T14:34:53.610Z,0.93
2022-07-25T14:37:23.697Z,0.90
2022-07-25T14:39:52.387Z,1.27
2022-07-25T14:42:22.402Z,0.80
2022-07-25T14:44:50.916Z,1.43
2022-07-25T14:47:19.549Z,1.03
2022-07-25T14:49:48.045Z,0.90
2022-07-25T14:52:16.755Z,1.07
2022-07-25T14:54:45.740Z,0.93
2022-07-25T14:57:14.322Z,1.03
2022-07-25T14:59:44.268Z,0.97
2022-07-25T15:02:12.757Z,1.10
2022-07-25T15:04:41.450Z,0.90
2022-07-25T15:07:10.483Z,0.93
2022-07-25T15:09:39.121Z,1.10
2022-07-25T15:12:11.118Z,1.00
2022-07-25T15:14:42.015Z,1.00
2022-07-25T15:17:12.148Z,1.00
2022-07-25T15:19:40.653Z,0.90
2022-07-25T15:22:09.178Z,0.90
2022-07-25T15:25:06.335Z,1.10
2022-07-25T15:27:26.372Z,1.20
2022-07-25T15:29:55.440Z,1.00
2022-07-25T15:32:25.495Z,0.90
2022-07-25T15:34:53.967Z,1.00
2022-07-25T15:37:22.978Z,1.00
2022-07-25T15:39:51.403Z,0.93
2022-07-25T15:42:19.862Z,1.27
2022-07-25T15:44:48.328Z,1.17
2022-07-25T15:47:16.789Z,1.00
2022-07-25T15:49:46.681Z,1.03
2022-07-25T15:52:15.305Z,0.90
2022-07-25T15:54:43.799Z,1.50
2022-07-25T15:57:12.337Z,1.00
2022-07-25T15:59:40.829Z,1.27
2022-07-25T16:02:13.391Z,0.97
2022-07-25T16:04:41.955Z,1.30
2022-07-25T16:07:11.764Z,1.00
2022-07-25T16:09:40.193Z,1.10
2022-07-25T16:12:09.596Z,1.00
2022-07-25T16:14:38.552Z,1.00
2022-07-25T16:17:08.076Z,1.00
2022-07-25T16:19:36.508Z,1.20
2022-07-25T16:22:04.995Z,1.47
2022-07-25T16:24:34.993Z,1.10
2022-07-25T16:27:03.482Z,1.23
2022-07-25T16:29:32.376Z,1.50
2022-07-25T16:32:01.014Z,1.40
2022-07-25T16:34:29.476Z,1.40
2022-07-25T16:36:58.107Z,1.47
2022-07-25T16:39:26.591Z,1.30
2022-07-25T16:41:56.902Z,1.30
2022-07-25T16:44:25.493Z,1.40
2022-07-25T16:46:54.016Z,1.40
2022-07-25T16:49:24.336Z,1.13
2022-07-25T16:51:53.797Z,1.20
2022-07-25T16:54:24.006Z,1.27
2022-07-25T16:56:54.230Z,1.03
2022-07-25T17:01:53.622Z,1.90
2022-07-25T17:04:22.105Z,2.63
2022-07-25T17:06:50.719Z,4.07
2022-07-25T17:09:19.101Z,5.30
2022-07-25T17:11:47.518Z,3.53
2022-07-25T17:14:15.934Z,2.13
2022-07-25T17:16:45.889Z,2.93
2022-07-25T17:19:14.330Z,2.70
2022-07-25T17:21:42.986Z,2.10
2022-07-25T17:24:11.450Z,2.37
2022-07-25T17:26:40.098Z,2.00
2022-07-25T17:29:09.631Z,1.90
2022-07-25T17:31:38.454Z,1.80
2022-07-25T17:34:08.459Z,2.00
2022-07-25T17:36:37.072Z,1.83
2022-07-25T17:39:05.943Z,1.90
2022-07-25T17:41:34.880Z,1.73
2022-07-25T17:44:04.761Z,1.60
2022-07-25T17:46:36.070Z,1.70
2022-07-25T17:49:04.960Z,1.67
2022-07-25T17:51:34.823Z,1.70
2022-07-25T17:54:03.862Z,1.50
2022-07-25T17:56:32.435Z,1.83
2022-07-25T17:59:00.839Z,1.53
2022-07-25T18:01:29.343Z,2.10
2022-07-25T18:03:57.818Z,1.60
2022-07-25T18:06:29.708Z,1.77
2022-07-25T18:08:59.879Z,1.67
2022-07-25T18:11:28.270Z,1.70
2022-07-25T18:13:56.623Z,2.00
2022-07-25T18:16:25.155Z,1.80
2022-07-25T18:18:53.624Z,1.60
2022-07-25T18:21:22.199Z,1.50
2022-07-25T18:23:50.560Z,1.57
2022-07-25T18:26:22.053Z,1.60
2022-07-25T18:28:50.842Z,1.70
2022-07-25T18:31:19.347Z,1.80
2022-07-25T18:33:47.774Z,1.63
2022-07-25T18:36:16.117Z,2.00
2022-07-25T18:38:44.549Z,1.63
2022-07-25T18:41:28.687Z,1.70
2022-07-25T18:44:01.059Z,1.90
2022-07-25T18:46:32.275Z,1.60
2022-07-25T18:49:02.464Z,2.07
2022-07-25T18:51:30.940Z,2.10
2022-07-25T18:53:59.298Z,1.80
2022-07-25T18:56:27.730Z,1.63
2022-07-25T18:58:56.152Z,1.60
2022-07-25T19:01:26.516Z,1.50
2022-07-25T19:03:55.233Z,1.53
2022-07-25T19:06:24.023Z,1.90
2022-07-25T19:08:53.005Z,1.80
2022-07-25T19:11:21.590Z,1.80
2022-07-25T19:13:51.212Z,1.77
2022-07-25T19:16:21.097Z,1.80
2022-07-25T19:18:51.155Z,1.90
2022-07-25T19:21:19.625Z,1.73
2022-07-25T19:23:51.114Z,1.60
2022-07-25T19:26:20.224Z,1.60
2022-07-25T19:28:48.971Z,1.60
2022-07-25T19:31:17.684Z,1.80
2022-07-25T19:33:46.965Z,1.80
2022-07-25T19:36:17.000Z,1.90
2022-07-25T19:38:45.370Z,1.47
2022-07-25T19:41:14.681Z,1.80
2022-07-25T19:43:43.267Z,1.90
2022-07-25T19:46:11.775Z,1.70
2022-07-25T19:48:40.711Z,2.20
2022-07-25T19:51:09.105Z,2.07
2022-07-25T19:53:39.169Z,1.90
2022-07-25T19:56:08.665Z,1.83
2022-07-25T19:58:39.078Z,1.70
2022-07-25T20:01:11.945Z,1.80
2022-07-25T20:03:41.151Z,2.07
2022-07-25T20:06:10.158Z,1.70
2022-07-25T20:08:40.682Z,1.83
2022-07-25T20:11:09.342Z,1.73
2022-07-25T20:13:37.827Z,2.00
2022-07-25T20:16:06.964Z,1.70
2022-07-25T20:18:35.494Z,1.87
2022-07-25T20:21:04.089Z,2.13
2022-07-25T20:23:32.654Z,1.80
2022-07-25T20:26:04.440Z,2.33
2022-07-25T20:28:33.539Z,1.90
2022-07-25T20:31:02.766Z,1.83
2022-07-25T20:33:31.587Z,1.97
2022-07-25T20:36:08.498Z,2.13
2022-07-25T20:38:37.395Z,1.63
2022-07-25T20:41:08.354Z,2.43
2022-07-25T20:43:38.197Z,2.10
2022-07-25T20:46:09.387Z,2.00
2022-07-25T20:48:38.577Z,1.80
2022-07-25T20:51:07.633Z,1.67
2022-07-25T20:53:36.095Z,1.70
2022-07-25T20:56:04.619Z,2.10
2022-07-25T20:58:34.472Z,2.50
2022-07-25T21:01:03.322Z,2.13
2022-07-25T21:03:31.859Z,2.00
2022-07-25T21:06:01.629Z,1.90
2022-07-25T21:08:30.070Z,2.13
2022-07-25T21:10:59.087Z,1.83
2022-07-25T21:13:27.467Z,1.50
2022-07-25T21:16:02.131Z,2.23
2022-07-25T21:18:30.665Z,2.03
2022-07-25T21:20:59.665Z,1.80
2022-07-25T21:23:28.187Z,1.90
2022-07-25T21:25:56.867Z,2.00
2022-07-25T21:28:26.048Z,2.10
2022-07-25T21:30:54.640Z,2.10
2022-07-25T21:33:24.471Z,1.90
2022-07-25T21:35:53.644Z,1.80
2022-07-25T21:38:26.051Z,1.93
2022-07-25T21:40:56.378Z,1.93
2022-07-25T21:43:25.461Z,2.07
2022-07-25T21:45:54.422Z,1.70
2022-07-25T21:48:44.797Z,2.00
2022-07-25T21:51:15.216Z,1.90
2022-07-25T21:53:48.040Z,1.83
2022-07-25T21:56:16.772Z,2.00
2022-07-25T21:58:45.740Z,1.83
2022-07-25T22:01:14.196Z,2.40
2022-07-25T22:03:44.861Z,1.90
2022-07-25T22:06:13.666Z,1.80
2022-07-25T22:08:42.415Z,2.17
2022-07-25T22:11:20.759Z,2.10
2022-07-25T22:14:00.041Z,2.00
2022-07-25T22:16:28.812Z,1.80
2022-07-25T22:19:00.068Z,2.43
2022-07-25T22:21:31.904Z,2.07
2022-07-25T22:24:00.553Z,2.00
2022-07-25T22:26:29.333Z,1.90
2022-07-25T22:28:58.030Z,1.70
2022-07-25T22:31:26.864Z,1.93
2022-07-25T22:33:55.752Z,2.00
2022-07-25T22:36:26.015Z,2.40
2022-07-25T22:38:54.642Z,2.47
2022-07-25T22:41:23.345Z,2.33
2022-07-25T22:43:59.032Z,2.07
2022-07-25T22:46:29.754Z,1.90
2022-07-25T22:48:59.398Z,2.30
2022-07-25T22:51:29.959Z,2.03
2022-07-25T22:53:58.960Z,1.80
2022-07-25T22:56:28.484Z,2.13
2022-07-25T22:58:57.384Z,2.60
2022-07-25T23:01:26.333Z,2.10
2022-07-25T23:03:55.029Z,2.13
2022-07-25T23:06:23.913Z,2.00
2022-07-25T23:08:54.068Z,2.30
2022-07-25T23:11:22.852Z,2.20
2022-07-25T23:13:51.663Z,2.30
2022-07-25T23:16:20.778Z,2.20
2022-07-25T23:18:49.429Z,2.20
2022-07-25T23:21:18.241Z,2.20
2022-07-25T23:23:46.902Z,2.13
2022-07-25T23:26:17.477Z,2.37
2022-07-25T23:28:46.239Z,2.43
2022-07-25T23:31:14.955Z,2.20
2022-07-25T23:33:43.943Z,2.37
2022-07-25T23:36:12.863Z,2.60
2022-07-25T23:38:41.467Z,2.70
2022-07-25T23:41:09.980Z,2.33
2022-07-25T23:43:59.515Z,2.50
2022-07-25T23:46:29.513Z,2.10
2022-07-25T23:49:01.181Z,2.13
2022-07-25T23:51:29.928Z,2.30
2022-07-25T23:53:58.818Z,2.20
2022-07-25T23:56:27.792Z,2.10
2022-07-25T23:58:57.958Z,2.60
